sensor_id;sensor_type;location;lat;lon;timestamp;P1;durP1;ratioP1;P2;durP2;ratioP2
46505;SDS011;32220;49.808;9.968;2023-12-07T09:55:56;15.67;;;9.17;;
46505;SDS011;32220;49.808;9.968;2023-12-07T09:58:36;14.60;;;8.77;;
46505;SDS011;32220;49.808;9.968;2023-12-07T10:01:08;13.83;;;7.53;;
46505;SDS011;32220;49.808;9.968;2023-12-07T10:03:39;13.60;;;7.83;;
46505;SDS011;32220;49.808;9.968;2023-12-07T10:06:07;11.80;;;7.17;;
46505;SDS011;32220;49.808;9.968;2023-12-07T10:08:35;14.33;;;8.20;;
46505;SDS011;32220;49.808;9.968;2023-12-07T10:11:08;15.20;;;7.57;;
46505;SDS011;32220;49.808;9.968;2023-12-07T10:13:38;13.83;;;7.97;;
46505;SDS011;32220;49.808;9.968;2023-12-07T10:16:10;13.03;;;7.50;;
46505;SDS011;32220;49.808;9.968;2023-12-07T10:18:39;14.77;;;7.63;;
46505;SDS011;32220;49.808;9.968;2023-12-07T10:21:07;16.90;;;8.43;;
46505;SDS011;32220;49.808;9.968;2023-12-07T10:23:36;14.17;;;7.87;;
46505;SDS011;32220;49.808;9.968;2023-12-07T10:26:05;13.60;;;7.57;;
46505;SDS011;32220;49.808;9.968;2023-12-07T10:28:35;12.57;;;7.43;;
46505;SDS011;32220;49.808;9.968;2023-12-07T10:31:03;13.70;;;8.03;;
46505;SDS011;32220;49.808;9.968;2023-12-07T10:33:35;12.03;;;7.10;;
46505;SDS011;32220;49.808;9.968;2023-12-07T10:36:02;12.50;;;7.23;;
46505;SDS011;32220;49.808;9.968;2023-12-07T10:38:30;13.70;;;8.03;;
46505;SDS011;32220;49.808;9.968;2023-12-07T10:41:01;10.73;;;6.80;;
46505;SDS011;32220;49.808;9.968;2023-12-07T10:43:32;14.87;;;7.97;;
46505;SDS011;32220;49.808;9.968;2023-12-07T10:46:09;13.20;;;7.43;;
46505;SDS011;32220;49.808;9.968;2023-12-07T10:48:41;15.73;;;8.57;;
46505;SDS011;32220;49.808;9.968;2023-12-07T10:51:11;14.10;;;8.43;;
46505;SDS011;32220;49.808;9.968;2023-12-07T10:53:45;16.30;;;8.60;;
46505;SDS011;32220;49.808;9.968;2023-12-07T10:56:15;16.43;;;9.20;;
46505;SDS011;32220;49.808;9.968;2023-12-07T10:58:54;16.53;;;9.93;;
46505;SDS011;32220;49.808;9.968;2023-12-07T11:01:22;16.23;;;8.83;;
46505;SDS011;32220;49.808;9.968;2023-12-07T11:03:51;17.37;;;10.00;;
46505;SDS011;32220;49.808;9.968;2023-12-07T11:06:20;14.80;;;8.67;;
46505;SDS011;32220;49.808;9.968;2023-12-07T11:08:49;16.77;;;9.50;;
46505;SDS011;32220;49.808;9.968;2023-12-07T11:11:21;17.63;;;9.43;;
46505;SDS011;32220;49.808;9.968;2023-12-07T11:13:58;22.13;;;10.30;;
46505;SDS011;32220;49.808;9.968;2023-12-07T11:16:28;16.33;;;9.87;;
46505;SDS011;32220;49.808;9.968;2023-12-07T11:18:57;17.60;;;9.43;;
46505;SDS011;32220;49.808;9.968;2023-12-07T11:21:25;14.77;;;9.23;;
46505;SDS011;32220;49.808;9.968;2023-12-07T11:23:53;15.33;;;9.17;;
46505;SDS011;32220;49.808;9.968;2023-12-07T11:26:22;14.33;;;9.17;;
46505;SDS011;32220;49.808;9.968;2023-12-07T11:28:50;16.73;;;9.20;;
46505;SDS011;32220;49.808;9.968;2023-12-07T11:31:20;21.43;;;11.40;;
46505;SDS011;32220;49.808;9.968;2023-12-07T13:44:50;32.80;;;18.33;;
46505;SDS011;32220;49.808;9.968;2023-12-07T13:47:18;34.53;;;19.40;;
46505;SDS011;32220;49.808;9.968;2023-12-07T13:49:48;34.10;;;19.13;;
46505;SDS011;32220;49.808;9.968;2023-12-07T13:52:16;33.67;;;17.80;;
46505;SDS011;32220;49.808;9.968;2023-12-07T13:54:44;29.70;;;17.17;;
46505;SDS011;32220;49.808;9.968;2023-12-07T13:57:11;32.17;;;17.00;;
46505;SDS011;32220;49.808;9.968;2023-12-07T13:59:40;29.60;;;17.40;;
46505;SDS011;32220;49.808;9.968;2023-12-07T14:02:09;24.43;;;14.47;;
46505;SDS011;32220;49.808;9.968;2023-12-07T14:04:38;26.97;;;16.03;;
46505;SDS011;32220;49.808;9.968;2023-12-07T14:07:09;24.87;;;14.60;;
46505;SDS011;32220;49.808;9.968;2023-12-07T14:09:39;22.83;;;13.80;;
46505;SDS011;32220;49.808;9.968;2023-12-07T14:12:08;25.93;;;14.13;;
46505;SDS011;32220;49.808;9.968;2023-12-07T14:14:38;22.07;;;12.87;;
46505;SDS011;32220;49.808;9.968;2023-12-07T14:17:06;20.77;;;11.90;;
46505;SDS011;32220;49.808;9.968;2023-12-07T14:19:35;21.63;;;13.47;;
46505;SDS011;32220;49.808;9.968;2023-12-07T14:22:04;20.27;;;12.80;;
46505;SDS011;32220;49.808;9.968;2023-12-07T14:24:34;19.20;;;11.87;;
46505;SDS011;32220;49.808;9.968;2023-12-07T14:27:03;21.10;;;12.73;;
46505;SDS011;32220;49.808;9.968;2023-12-07T14:29:32;16.47;;;11.20;;
46505;SDS011;32220;49.808;9.968;2023-12-07T14:32:00;17.93;;;11.93;;
46505;SDS011;32220;49.808;9.968;2023-12-07T14:34:29;21.40;;;12.83;;
46505;SDS011;32220;49.808;9.968;2023-12-07T14:36:56;20.50;;;13.03;;
46505;SDS011;32220;49.808;9.968;2023-12-07T14:39:24;21.63;;;13.23;;
46505;SDS011;32220;49.808;9.968;2023-12-07T14:41:51;20.70;;;12.80;;
